createdAt,value
2023-06-26T00:01:37.212Z,8.03
2023-06-26T00:04:06.694Z,7.00
2023-06-26T00:06:37.296Z,7.53
2023-06-26T00:09:14.798Z,7.60
2023-06-26T00:11:46.641Z,7.40
2023-06-26T00:14:19.559Z,8.07
2023-06-26T00:16:53.602Z,7.27
2023-06-26T00:19:24.772Z,8.17
2023-06-26T00:21:58.476Z,7.97
2023-06-26T00:24:29.597Z,8.27
2023-06-26T00:27:05.650Z,7.50
2023-06-26T00:29:34.766Z,7.43
2023-06-26T00:32:07.794Z,7.10
2023-06-26T00:34:38.716Z,7.67
2023-06-26T00:37:10.376Z,6.80
2023-06-26T00:39:38.666Z,7.13
2023-06-26T00:42:10.180Z,7.10
2023-06-26T00:44:41.409Z,7.03
2023-06-26T00:47:19.261Z,7.73
2023-06-26T00:49:55.965Z,7.47
2023-06-26T00:52:35.677Z,7.67
2023-06-26T00:55:08.835Z,7.20
2023-06-26T00:57:42.340Z,6.90
2023-06-26T01:00:23.778Z,7.37
2023-06-26T01:02:56.915Z,7.47
2023-06-26T01:05:33.932Z,7.30
2023-06-26T01:08:04.562Z,7.40
2023-06-26T01:10:41.149Z,7.20
2023-06-26T01:13:16.940Z,6.30
2023-06-26T01:15:48.245Z,7.43
2023-06-26T01:18:23.730Z,6.70
2023-06-26T01:20:52.556Z,7.87
2023-06-26T01:23:26.857Z,7.70
2023-06-26T01:26:22.197Z,7.00
2023-06-26T01:28:53.378Z,6.40
2023-06-26T01:31:24.426Z,7.20
2023-06-26T01:34:04.796Z,7.47
2023-06-26T01:36:36.804Z,6.63
2023-06-26T01:39:17.103Z,7.20
2023-06-26T01:41:49.737Z,7.10
2023-06-26T01:44:27.854Z,6.93
2023-06-26T01:47:05.292Z,6.90
2023-06-26T01:49:44.461Z,7.20
2023-06-26T01:52:21.688Z,7.37
2023-06-26T01:55:08.421Z,6.97
2023-06-26T01:57:41.608Z,7.10
2023-06-26T02:00:19.582Z,7.20
2023-06-26T02:02:49.792Z,7.07
2023-06-26T02:05:20.508Z,6.63
2023-06-26T02:07:48.790Z,7.30
2023-06-26T02:10:24.536Z,6.70
2023-06-26T02:12:57.483Z,6.73
2023-06-26T02:15:27.017Z,7.60
2023-06-26T02:18:05.134Z,7.30
2023-06-26T02:20:35.053Z,7.40
2023-06-26T02:23:11.157Z,6.83
2023-06-26T02:25:40.214Z,6.80
2023-06-26T02:28:14.727Z,6.57
2023-06-26T02:30:46.550Z,6.90
2023-06-26T02:33:14.643Z,7.20
2023-06-26T02:35:45.729Z,6.57
2023-06-26T02:38:18.187Z,6.80
2023-06-26T02:40:58.470Z,7.23
2023-06-26T02:43:33.567Z,6.43
2023-06-26T02:46:12.082Z,5.80
2023-06-26T02:48:43.440Z,7.47
2023-06-26T02:51:15.906Z,7.20
2023-06-26T02:53:45.948Z,6.77
2023-06-26T02:56:16.067Z,5.90
2023-06-26T02:59:00.105Z,7.27
2023-06-26T03:01:31.726Z,7.20
2023-06-26T03:04:03.078Z,7.40
2023-06-26T03:06:35.714Z,7.50
2023-06-26T03:09:07.536Z,8.20
2023-06-26T03:11:36.987Z,7.37
2023-06-26T03:14:20.769Z,7.80
2023-06-26T03:16:54.061Z,7.47
2023-06-26T03:19:27.500Z,7.40
2023-06-26T03:22:32.288Z,7.40
2023-06-26T03:25:01.760Z,7.57
2023-06-26T03:27:32.798Z,8.07
2023-06-26T03:30:03.323Z,7.37
2023-06-26T03:32:31.744Z,7.87
2023-06-26T03:35:06.815Z,7.40
2023-06-26T03:37:35.706Z,7.00
2023-06-26T03:40:11.485Z,6.90
2023-06-26T03:42:47.814Z,7.53
2023-06-26T03:45:27.714Z,6.87
2023-06-26T03:48:02.551Z,7.10
2023-06-26T03:50:33.351Z,7.60
2023-06-26T03:53:02.806Z,7.47
2023-06-26T03:55:35.439Z,7.50
2023-06-26T03:58:05.912Z,7.40
2023-06-26T04:00:45.359Z,6.97
2023-06-26T04:03:14.820Z,7.13
2023-06-26T04:05:45.125Z,7.40
2023-06-26T04:08:15.885Z,7.20
2023-06-26T04:10:46.731Z,7.13
2023-06-26T04:13:18.873Z,6.90
2023-06-26T04:15:52.067Z,7.30
2023-06-26T04:18:28.932Z,7.40
2023-06-26T04:21:16.986Z,7.63
2023-06-26T04:23:52.450Z,8.23
2023-06-26T04:26:22.894Z,7.87
2023-06-26T04:28:52.638Z,7.20
2023-06-26T04:31:26.209Z,7.83
2023-06-26T04:33:57.096Z,7.80
2023-06-26T04:36:29.619Z,6.90
2023-06-26T04:39:00.240Z,7.87
2023-06-26T04:41:31.678Z,7.93
2023-06-26T04:44:08.248Z,7.13
2023-06-26T04:46:53.110Z,7.37
2023-06-26T04:49:30.649Z,7.00
2023-06-26T04:52:02.406Z,7.30
2023-06-26T04:54:31.779Z,7.73
2023-06-26T04:57:08.383Z,7.90
2023-06-26T04:59:41.943Z,7.50
2023-06-26T05:02:21.143Z,7.30
2023-06-26T05:04:50.895Z,8.10
2023-06-26T05:07:23.679Z,7.97
2023-06-26T05:09:55.326Z,8.70
2023-06-26T05:12:27.144Z,7.20
2023-06-26T05:14:58.148Z,7.20
2023-06-26T05:17:35.484Z,7.90
2023-06-26T05:20:08.151Z,7.33
2023-06-26T05:22:40.912Z,8.27
2023-06-26T05:25:19.005Z,7.27
2023-06-26T05:27:48.302Z,7.93
2023-06-26T05:30:27.713Z,8.67
2023-06-26T05:33:04.489Z,7.30
2023-06-26T05:35:33.239Z,6.70
2023-06-26T05:38:04.464Z,7.23
2023-06-26T05:40:35.888Z,6.37
2023-06-26T05:43:07.327Z,6.13
2023-06-26T05:45:38.567Z,6.30
2023-06-26T05:48:10.747Z,5.67
2023-06-26T05:50:43.038Z,5.10
2023-06-26T05:53:15.335Z,4.80
2023-06-26T05:55:51.520Z,4.50
2023-06-26T05:58:20.646Z,4.47
2023-06-26T06:00:48.700Z,4.60
2023-06-26T06:03:20.989Z,5.00
2023-06-26T06:05:57.765Z,5.17
2023-06-26T06:08:28.600Z,4.87
2023-06-26T06:11:00.495Z,4.63
2023-06-26T06:13:36.730Z,5.17
2023-06-26T06:16:14.127Z,5.07
2023-06-26T06:18:52.601Z,4.87
2023-06-26T06:21:22.701Z,3.87
2023-06-26T06:23:53.161Z,5.50
2023-06-26T06:26:29.677Z,4.90
2023-06-26T06:29:07.631Z,4.80
2023-06-26T06:31:36.795Z,5.13
2023-06-26T06:34:06.353Z,4.93
2023-06-26T06:36:37.396Z,5.03
2023-06-26T06:39:06.768Z,4.47
2023-06-26T06:41:37.951Z,4.97
2023-06-26T06:44:10.580Z,4.70
2023-06-26T06:46:39.220Z,4.87
2023-06-26T06:49:26.165Z,4.70
2023-06-26T06:51:57.370Z,5.00
2023-06-26T06:54:40.350Z,4.93
2023-06-26T06:57:17.611Z,4.30
2023-06-26T06:59:49.621Z,5.27
2023-06-26T07:02:29.812Z,4.83
2023-06-26T07:05:06.956Z,5.07
2023-06-26T07:07:36.263Z,5.00
2023-06-26T07:10:08.857Z,4.77
2023-06-26T07:12:39.506Z,4.50
2023-06-26T07:15:11.713Z,5.00
2023-06-26T07:17:43.616Z,4.43
2023-06-26T07:20:26.268Z,4.80
2023-06-26T07:23:00.003Z,4.40
2023-06-26T07:25:28.281Z,5.03
2023-06-26T07:27:59.999Z,5.67
2023-06-26T07:30:29.729Z,4.77
2023-06-26T07:33:00.845Z,5.30
2023-06-26T07:35:37.702Z,5.13
2023-06-26T07:38:08.158Z,4.60
2023-06-26T07:40:44.662Z,5.33
2023-06-26T07:43:15.336Z,4.80
2023-06-26T07:45:46.353Z,4.17
2023-06-26T07:48:20.133Z,4.67
2023-06-26T07:51:03.604Z,4.97
2023-06-26T07:53:40.018Z,4.73
2023-06-26T07:56:08.598Z,4.67
2023-06-26T07:58:39.742Z,4.47
2023-06-26T08:01:09.175Z,4.53
2023-06-26T08:03:38.229Z,4.20
2023-06-26T08:06:17.831Z,4.20
2023-06-26T08:08:51.830Z,4.10
2023-06-26T08:11:21.048Z,4.20
2023-06-26T08:14:02.976Z,4.10
2023-06-26T08:16:33.172Z,3.43
2023-06-26T08:19:05.094Z,5.00
2023-06-26T08:21:50.212Z,3.90
2023-06-26T08:24:27.355Z,4.40
2023-06-26T08:26:56.411Z,4.20
2023-06-26T08:29:27.310Z,4.37
2023-06-26T08:31:57.931Z,4.27
2023-06-26T08:34:29.339Z,5.37
2023-06-26T08:36:59.823Z,4.53
2023-06-26T08:39:29.514Z,5.00
2023-06-26T08:42:03.268Z,5.23
2023-06-26T08:44:40.811Z,5.00
2023-06-26T08:47:22.728Z,5.10
2023-06-26T08:50:03.867Z,4.77
2023-06-26T08:52:43.133Z,4.57
2023-06-26T08:55:14.388Z,4.73
2023-06-26T08:57:56.292Z,4.97
2023-06-26T09:00:27.699Z,5.60
2023-06-26T09:02:58.139Z,4.73
2023-06-26T09:05:29.183Z,4.87
2023-06-26T09:08:02.379Z,5.30
2023-06-26T09:10:35.781Z,4.53
2023-06-26T09:13:24.663Z,4.40
2023-06-26T09:15:57.444Z,5.00
2023-06-26T09:18:28.310Z,4.60
2023-06-26T09:21:02.374Z,5.23
2023-06-26T09:23:34.003Z,4.90
2023-06-26T09:26:14.327Z,4.67
2023-06-26T09:28:45.215Z,4.80
2023-06-26T09:31:31.501Z,4.60
2023-06-26T09:34:16.648Z,5.60
2023-06-26T09:36:47.979Z,4.70
2023-06-26T09:39:29.940Z,5.40
2023-06-26T09:42:00.936Z,5.50
2023-06-26T09:44:33.043Z,4.87
2023-06-26T09:47:04.198Z,4.97
2023-06-26T09:49:34.456Z,5.20
2023-06-26T09:52:05.843Z,5.40
2023-06-26T09:54:36.747Z,4.93
2023-06-26T09:57:16.165Z,4.60
2023-06-26T09:59:46.875Z,5.50
2023-06-26T10:02:18.801Z,5.20
2023-06-26T10:04:51.249Z,4.73
2023-06-26T10:07:21.897Z,5.13
2023-06-26T10:10:06.055Z,5.30
2023-06-26T10:12:39.365Z,5.00
2023-06-26T10:15:14.810Z,5.03
2023-06-26T10:17:47.358Z,5.37
2023-06-26T10:20:19.226Z,4.80
2023-06-26T10:22:50.234Z,5.17
2023-06-26T10:25:23.568Z,5.37
2023-06-26T10:27:56.862Z,4.43
2023-06-26T10:30:32.099Z,4.33
2023-06-26T10:33:12.302Z,4.10
2023-06-26T10:35:49.735Z,4.33
2023-06-26T10:38:19.446Z,4.50
2023-06-26T10:40:53.387Z,4.50
2023-06-26T10:43:23.776Z,4.20
2023-06-26T10:46:02.665Z,3.90
2023-06-26T10:48:36.848Z,4.60
2023-06-26T10:51:29.819Z,4.70
2023-06-26T10:53:59.517Z,4.60
2023-06-26T10:56:53.892Z,4.63
2023-06-26T10:59:25.432Z,4.70
2023-06-26T11:02:02.978Z,4.43
2023-06-26T11:04:45.607Z,4.43
2023-06-26T11:07:24.424Z,4.40
2023-06-26T11:10:00.911Z,4.30
2023-06-26T11:12:46.728Z,4.50
2023-06-26T11:15:18.880Z,4.20
2023-06-26T11:17:52.520Z,4.53
2023-06-26T11:20:34.690Z,4.30
2023-06-26T11:23:07.685Z,4.33
2023-06-26T11:25:37.458Z,3.70
2023-06-26T11:28:10.634Z,3.63
2023-06-26T11:30:44.653Z,4.27
2023-06-26T11:33:20.980Z,3.80
2023-06-26T11:35:54.842Z,3.90
2023-06-26T11:38:24.656Z,4.27
2023-06-26T11:40:54.729Z,4.03
2023-06-26T11:43:25.028Z,3.87
2023-06-26T11:46:01.751Z,4.43
2023-06-26T11:48:33.874Z,3.90
2023-06-26T11:51:06.709Z,4.67
2023-06-26T11:53:45.205Z,4.07
2023-06-26T11:56:19.781Z,4.57
2023-06-26T11:59:12.245Z,4.13
2023-06-26T12:01:47.947Z,4.00
2023-06-26T12:04:23.513Z,3.70
2023-06-26T12:06:58.505Z,4.00
2023-06-26T12:09:36.259Z,4.40
2023-06-26T12:12:13.054Z,3.87
2023-06-26T12:14:44.891Z,4.03
2023-06-26T12:17:26.961Z,4.63
2023-06-26T12:19:56.288Z,3.83
2023-06-26T12:22:29.071Z,3.83
2023-06-26T12:24:59.114Z,3.97
2023-06-26T12:27:37.344Z,4.30
2023-06-26T12:30:13.340Z,3.80
2023-06-26T12:32:42.298Z,3.80
2023-06-26T12:35:11.840Z,3.87
2023-06-26T12:37:48.311Z,3.53
2023-06-26T12:40:23.514Z,3.00
2023-06-26T12:42:54.778Z,3.40
2023-06-26T12:45:32.710Z,3.57
2023-06-26T12:48:13.452Z,3.70
2023-06-26T12:50:46.943Z,3.80
2023-06-26T12:53:20.548Z,3.97
2023-06-26T12:55:50.290Z,3.60
2023-06-26T12:58:22.794Z,4.00
2023-06-26T13:00:57.108Z,4.00
2023-06-26T13:03:28.264Z,3.73
2023-06-26T13:06:00.216Z,4.37
2023-06-26T13:08:38.618Z,4.13
2023-06-26T13:11:10.034Z,3.80
2023-06-26T13:13:54.208Z,3.90
2023-06-26T13:16:37.070Z,4.33
2023-06-26T13:19:05.638Z,3.80
2023-06-26T13:21:42.854Z,4.07
2023-06-26T13:24:14.280Z,4.27
2023-06-26T13:26:45.530Z,4.50
2023-06-26T13:29:18.618Z,4.30
2023-06-26T13:31:58.272Z,3.93
2023-06-26T13:34:31.572Z,4.50
2023-06-26T13:37:03.558Z,4.53
2023-06-26T13:39:33.288Z,4.20
2023-06-26T13:42:03.419Z,4.97
2023-06-26T13:44:38.844Z,3.90
2023-06-26T13:47:18.705Z,3.70
2023-06-26T13:49:48.005Z,4.50
2023-06-26T13:52:27.109Z,4.40
2023-06-26T13:54:55.589Z,4.30
2023-06-26T13:57:28.768Z,4.50
2023-06-26T13:59:57.619Z,4.50
2023-06-26T14:02:39.013Z,4.53
2023-06-26T14:05:27.203Z,4.17
2023-06-26T14:08:08.187Z,4.20
2023-06-26T14:10:37.933Z,3.80
2023-06-26T14:13:11.067Z,5.03
2023-06-26T14:15:45.124Z,5.00
2023-06-26T14:18:18.895Z,5.50
2023-06-26T14:20:50.277Z,4.63
2023-06-26T14:23:19.693Z,4.30
2023-06-26T14:25:49.942Z,4.80
2023-06-26T14:28:24.258Z,4.57
2023-06-26T14:31:01.511Z,4.40
2023-06-26T14:33:47.211Z,4.60
2023-06-26T14:36:16.008Z,4.07
2023-06-26T14:38:45.140Z,4.20
2023-06-26T14:41:18.845Z,4.43
2023-06-26T14:43:49.901Z,4.10
2023-06-26T14:46:20.291Z,4.10
2023-06-26T14:49:02.372Z,4.33
2023-06-26T14:51:30.368Z,4.27
2023-06-26T14:54:01.308Z,4.53
2023-06-26T14:56:30.883Z,4.77
2023-06-26T14:59:02.620Z,4.90
2023-06-26T15:01:32.415Z,5.30
2023-06-26T15:04:02.432Z,5.60
2023-06-26T15:06:34.211Z,5.53
2023-06-26T15:09:13.296Z,5.50
2023-06-26T15:11:44.989Z,5.80
2023-06-26T15:14:18.812Z,4.97
2023-06-26T15:16:48.193Z,5.47
2023-06-26T15:19:19.892Z,5.40
2023-06-26T15:21:52.516Z,6.47
2023-06-26T15:24:23.922Z,5.40
2023-06-26T15:26:54.123Z,5.87
2023-06-26T15:29:24.360Z,6.17
2023-06-26T15:32:01.634Z,5.50
2023-06-26T15:34:36.086Z,5.60
2023-06-26T15:37:07.520Z,5.50
2023-06-26T15:39:45.021Z,6.20
2023-06-26T15:42:13.774Z,5.40
2023-06-26T15:44:44.922Z,5.60
2023-06-26T15:47:16.224Z,5.40
2023-06-26T15:49:55.451Z,5.40
2023-06-26T15:52:26.083Z,5.77
2023-06-26T15:54:55.056Z,6.03
2023-06-26T15:57:29.095Z,5.60
2023-06-26T16:00:00.419Z,5.60
2023-06-26T16:02:29.764Z,6.00
2023-06-26T16:05:05.125Z,5.10
2023-06-26T16:07:55.199Z,6.03
2023-06-26T16:10:24.834Z,5.53
2023-06-26T16:12:54.640Z,5.63
2023-06-26T16:15:27.255Z,5.57
2023-06-26T16:17:56.601Z,5.50
2023-06-26T16:20:26.387Z,6.60
2023-06-26T16:22:56.602Z,6.13
2023-06-26T16:25:33.098Z,5.97
2023-06-26T16:28:02.918Z,5.27
2023-06-26T16:30:33.143Z,6.23
2023-06-26T16:33:05.400Z,6.03
2023-06-26T16:35:40.204Z,6.03
2023-06-26T16:38:13.942Z,5.30
2023-06-26T16:40:45.647Z,5.60
2023-06-26T16:43:22.430Z,6.23
2023-06-26T16:45:50.865Z,6.13
2023-06-26T16:48:25.032Z,5.60
2023-06-26T16:50:57.450Z,6.30
2023-06-26T16:53:27.038Z,5.93
2023-06-26T16:55:58.827Z,6.37
2023-06-26T16:58:29.989Z,5.70
2023-06-26T17:01:02.046Z,6.70
2023-06-26T17:03:36.134Z,6.90
2023-06-26T17:06:11.482Z,6.13
2023-06-26T17:08:46.331Z,5.80
2023-06-26T17:11:17.354Z,5.60
2023-06-26T17:13:47.750Z,5.43
2023-06-26T17:16:18.743Z,6.90
2023-06-26T17:18:51.012Z,5.57
2023-06-26T17:21:33.676Z,5.77
2023-06-26T17:24:13.399Z,5.40
2023-06-26T17:26:44.482Z,5.90
2023-06-26T17:29:16.731Z,5.93
2023-06-26T17:31:44.749Z,5.77
2023-06-26T17:34:16.572Z,6.00
2023-06-26T17:36:48.618Z,6.30
2023-06-26T17:39:22.533Z,6.27
2023-06-26T17:41:50.985Z,6.23
2023-06-26T17:44:23.646Z,5.97
2023-06-26T17:46:54.666Z,6.10
2023-06-26T17:49:24.028Z,5.60
2023-06-26T17:52:06.490Z,5.63
2023-06-26T17:54:40.721Z,6.20
2023-06-26T17:57:10.434Z,6.40
2023-06-26T17:59:47.688Z,6.20
2023-06-26T18:02:19.171Z,6.10
2023-06-26T18:04:49.520Z,6.70
2023-06-26T18:07:23.215Z,6.40
2023-06-26T18:09:52.752Z,5.67
2023-06-26T18:12:23.694Z,4.77
2023-06-26T18:14:53.126Z,5.80
2023-06-26T18:17:22.417Z,5.80
2023-06-26T18:19:58.456Z,5.50
2023-06-26T18:22:45.122Z,5.00
2023-06-26T18:25:21.845Z,4.80
2023-06-26T18:27:52.151Z,5.17
2023-06-26T18:30:26.241Z,4.67
2023-06-26T18:33:05.454Z,4.40
2023-06-26T18:35:37.413Z,4.73
2023-06-26T18:38:15.220Z,5.40
2023-06-26T18:40:57.666Z,4.60
2023-06-26T18:43:29.013Z,4.63
2023-06-26T18:45:58.139Z,5.77
2023-06-26T18:48:27.662Z,5.00
2023-06-26T18:51:04.411Z,5.10
2023-06-26T18:53:36.155Z,4.70
2023-06-26T18:56:04.448Z,5.03
2023-06-26T18:58:36.127Z,5.03
2023-06-26T19:01:06.776Z,4.90
2023-06-26T19:03:37.279Z,4.60
2023-06-26T19:06:09.070Z,5.07
2023-06-26T19:08:45.879Z,4.70
2023-06-26T19:11:21.054Z,4.90
2023-06-26T19:13:54.564Z,4.23
2023-06-26T19:16:25.223Z,4.43
2023-06-26T19:19:02.233Z,4.43
2023-06-26T19:21:31.116Z,4.53
2023-06-26T19:24:02.683Z,4.33
2023-06-26T19:26:32.415Z,5.00
2023-06-26T19:29:12.666Z,4.80
2023-06-26T19:31:57.665Z,5.00
2023-06-26T19:34:33.712Z,4.70
2023-06-26T19:37:10.042Z,4.47
2023-06-26T19:39:48.933Z,4.70
2023-06-26T19:42:21.012Z,5.33
2023-06-26T19:44:54.227Z,4.80
2023-06-26T19:47:25.140Z,4.70
2023-06-26T19:50:06.486Z,4.70
2023-06-26T19:52:37.693Z,5.03
2023-06-26T19:55:17.807Z,5.30
2023-06-26T19:57:46.786Z,4.80
2023-06-26T20:00:20.023Z,4.77
2023-06-26T20:03:02.718Z,4.63
2023-06-26T20:05:44.228Z,5.00
2023-06-26T20:08:15.074Z,5.40
2023-06-26T20:11:02.578Z,5.07
2023-06-26T20:13:33.298Z,5.00
2023-06-26T20:16:11.360Z,4.40
2023-06-26T20:18:46.961Z,4.97
2023-06-26T20:21:24.366Z,4.60
2023-06-26T20:23:57.716Z,4.80
2023-06-26T20:26:32.604Z,4.80
2023-06-26T20:29:04.373Z,4.77
2023-06-26T20:31:38.119Z,4.60
2023-06-26T20:34:12.687Z,5.50
2023-06-26T20:36:48.591Z,4.17
2023-06-26T20:39:20.490Z,4.70
2023-06-26T20:41:55.876Z,4.73
2023-06-26T20:44:29.768Z,4.70
2023-06-26T20:47:14.597Z,4.80
2023-06-26T20:49:55.257Z,4.97
2023-06-26T20:52:34.889Z,5.17
2023-06-26T20:55:05.091Z,5.27
2023-06-26T20:57:44.044Z,5.20
2023-06-26T21:00:18.853Z,5.23
2023-06-26T21:02:48.240Z,5.50
2023-06-26T21:05:21.802Z,4.90
2023-06-26T21:07:52.254Z,4.50
2023-06-26T21:10:25.919Z,5.00
2023-06-26T21:13:00.054Z,4.97
2023-06-26T21:15:38.375Z,4.70
2023-06-26T21:18:10.741Z,4.90
2023-06-26T21:20:41.089Z,4.80
2023-06-26T21:23:12.085Z,5.10
2023-06-26T21:25:43.233Z,4.50
2023-06-26T21:28:18.714Z,5.20
2023-06-26T21:30:51.180Z,5.40
2023-06-26T21:33:26.477Z,5.10
2023-06-26T21:35:58.561Z,4.83
2023-06-26T21:38:31.904Z,5.00
2023-06-26T21:41:14.098Z,4.47
2023-06-26T21:43:52.799Z,5.20
2023-06-26T21:46:20.950Z,4.97
2023-06-26T21:48:50.619Z,5.27
2023-06-26T21:51:24.617Z,5.50
2023-06-26T21:53:59.307Z,5.47
2023-06-26T21:56:27.736Z,5.27
2023-06-26T21:59:08.645Z,4.63
2023-06-26T22:01:37.083Z,4.77
2023-06-26T22:04:08.115Z,5.50
2023-06-26T22:06:46.278Z,4.73
2023-06-26T22:09:20.755Z,5.43
2023-06-26T22:11:58.521Z,5.23
2023-06-26T22:14:31.615Z,5.00
2023-06-26T22:17:05.638Z,4.63
2023-06-26T22:19:37.271Z,5.90
2023-06-26T22:22:08.203Z,6.33
2023-06-26T22:24:40.079Z,5.70
2023-06-26T22:27:08.762Z,5.80
2023-06-26T22:29:42.247Z,5.47
2023-06-26T22:32:13.515Z,6.00
2023-06-26T22:34:42.634Z,6.43
2023-06-26T22:37:13.726Z,6.40
2023-06-26T22:39:45.342Z,5.87
2023-06-26T22:42:20.024Z,5.93
2023-06-26T22:45:03.218Z,5.83
2023-06-26T22:47:34.113Z,5.60
2023-06-26T22:50:08.654Z,6.50
2023-06-26T22:52:37.749Z,6.00
2023-06-26T22:55:09.446Z,6.43
2023-06-26T22:57:40.499Z,6.00
2023-06-26T23:00:12.859Z,6.00
2023-06-26T23:02:48.961Z,6.53
2023-06-26T23:05:21.503Z,6.30
2023-06-26T23:07:50.483Z,5.97
2023-06-26T23:10:24.926Z,7.00
2023-06-26T23:12:55.756Z,5.97
2023-06-26T23:15:43.444Z,6.70
2023-06-26T23:18:12.856Z,6.60
2023-06-26T23:20:43.871Z,7.03
2023-06-26T23:23:28.404Z,6.90
2023-06-26T23:26:06.564Z,6.20
2023-06-26T23:28:40.533Z,6.70
2023-06-26T23:31:20.086Z,7.10
2023-06-26T23:33:57.313Z,7.50
2023-06-26T23:36:29.662Z,7.03
2023-06-26T23:39:01.330Z,7.90
2023-06-26T23:41:32.878Z,8.00
2023-06-26T23:44:04.373Z,6.93
2023-06-26T23:46:40.588Z,7.40
2023-06-26T23:49:09.807Z,7.40
2023-06-26T23:51:39.639Z,6.50
2023-06-26T23:54:09.757Z,7.03
2023-06-26T23:56:43.629Z,6.87
2023-06-26T23:59:15.887Z,7.37
